createdAt,value
2017-11-30T00:01:47.121Z,53.38
2017-11-30T00:04:13.312Z,53.38
2017-11-30T00:06:39.570Z,53.34
2017-11-30T00:09:05.994Z,53.37
2017-11-30T00:11:32.189Z,53.46
2017-11-30T00:13:58.446Z,53.49
2017-11-30T00:16:24.991Z,53.61
2017-11-30T00:18:51.186Z,53.71
2017-11-30T00:21:17.522Z,53.94
2017-11-30T00:23:43.714Z,53.99
2017-11-30T00:26:09.918Z,54.07
2017-11-30T00:28:36.434Z,54.08
2017-11-30T00:31:02.635Z,54.24
2017-11-30T00:33:29.106Z,54.27
2017-11-30T00:35:55.410Z,54.43
2017-11-30T00:38:21.599Z,54.50
2017-11-30T00:40:47.798Z,54.56
2017-11-30T00:43:26.212Z,54.69
2017-11-30T00:45:52.417Z,54.81
2017-11-30T00:48:18.615Z,54.89
2017-11-30T00:50:44.890Z,54.78
2017-11-30T00:53:11.102Z,54.62
2017-11-30T00:55:37.393Z,54.77
2017-11-30T00:58:03.630Z,54.85
2017-11-30T01:00:30.067Z,54.74
2017-11-30T01:02:56.262Z,54.75
2017-11-30T01:05:22.517Z,54.55
2017-11-30T01:07:48.948Z,54.58
2017-11-30T01:10:15.383Z,54.54
2017-11-30T01:12:41.624Z,54.44
2017-11-30T01:15:07.798Z,54.49
2017-11-30T01:17:33.986Z,54.43
2017-11-30T01:20:00.234Z,54.40
2017-11-30T01:22:26.423Z,54.50
2017-11-30T01:24:52.592Z,54.45
2017-11-30T01:27:19.074Z,54.40
2017-11-30T01:29:45.258Z,54.44
2017-11-30T01:32:11.437Z,54.47
2017-11-30T01:34:37.781Z,55.04
2017-11-30T01:37:03.962Z,55.05
2017-11-30T01:39:30.153Z,55.08
2017-11-30T01:41:56.389Z,54.89
2017-11-30T01:44:22.596Z,55.30
2017-11-30T01:46:48.784Z,55.22
2017-11-30T01:49:15.030Z,55.10
2017-11-30T01:51:41.217Z,55.04
2017-11-30T01:54:07.436Z,54.99
2017-11-30T01:56:33.755Z,54.95
2017-11-30T01:59:00.266Z,55.12
2017-11-30T02:01:26.448Z,55.08
2017-11-30T02:03:52.770Z,55.42
2017-11-30T02:06:18.959Z,55.51
2017-11-30T02:08:45.163Z,55.52
2017-11-30T02:11:11.508Z,55.44
2017-11-30T02:13:37.710Z,55.35
2017-11-30T02:16:03.899Z,55.35
2017-11-30T02:18:30.123Z,55.51
2017-11-30T02:20:56.307Z,55.48
2017-11-30T02:23:22.504Z,55.60
2017-11-30T02:25:48.844Z,56.21
2017-11-30T02:28:15.120Z,56.41
2017-11-30T02:30:41.340Z,56.24
2017-11-30T02:33:07.666Z,56.12
2017-11-30T02:35:33.860Z,56.00
2017-11-30T02:38:00.067Z,55.80
2017-11-30T02:40:26.311Z,55.63
2017-11-30T02:42:52.790Z,55.67
2017-11-30T02:45:18.981Z,55.65
2017-11-30T02:47:45.245Z,55.65
2017-11-30T02:50:11.465Z,55.70
2017-11-30T02:52:38.006Z,55.76
2017-11-30T02:55:04.547Z,55.71
2017-11-30T02:57:30.785Z,55.65
2017-11-30T02:59:57.258Z,55.67
2017-11-30T03:02:23.506Z,55.85
2017-11-30T03:04:49.708Z,55.76
2017-11-30T03:07:16.129Z,55.71
2017-11-30T03:09:42.374Z,55.73
2017-11-30T03:12:08.621Z,55.72
2017-11-30T03:14:34.817Z,55.60
2017-11-30T03:17:01.038Z,55.45
2017-11-30T03:19:27.280Z,55.31
2017-11-30T03:21:53.479Z,55.39
2017-11-30T03:24:19.678Z,55.40
2017-11-30T03:26:45.935Z,55.36
2017-11-30T03:29:12.137Z,55.28
2017-11-30T03:31:38.337Z,55.23
2017-11-30T03:34:04.572Z,55.28
2017-11-30T03:36:30.765Z,55.19
2017-11-30T03:38:56.964Z,55.15
2017-11-30T03:41:23.388Z,55.21
2017-11-30T03:43:49.595Z,55.33
2017-11-30T03:46:15.790Z,55.37
2017-11-30T03:48:42.039Z,55.23
2017-11-30T03:51:08.227Z,55.29
2017-11-30T03:53:34.427Z,55.31
2017-11-30T03:56:00.836Z,55.36
2017-11-30T03:58:27.123Z,55.87
2017-11-30T04:00:53.482Z,56.14
2017-11-30T04:03:19.963Z,56.37
2017-11-30T04:05:46.145Z,56.07
2017-11-30T04:08:12.345Z,55.41
2017-11-30T04:10:38.577Z,55.16
2017-11-30T04:13:04.850Z,55.02
2017-11-30T04:15:31.034Z,54.85
2017-11-30T04:17:57.288Z,54.81
2017-11-30T04:20:23.705Z,54.81
2017-11-30T04:22:50.131Z,55.37
2017-11-30T04:25:16.502Z,55.51
2017-11-30T04:27:42.950Z,55.50
2017-11-30T04:30:09.150Z,55.54
2017-11-30T04:32:35.408Z,55.50
2017-11-30T04:35:01.627Z,55.49
2017-11-30T04:37:27.847Z,55.51
2017-11-30T04:39:54.085Z,55.80
2017-11-30T04:44:52.182Z,55.50
2017-11-30T04:47:18.441Z,55.28
2017-11-30T04:49:44.659Z,55.18
2017-11-30T04:52:10.846Z,55.20
2017-11-30T04:54:37.269Z,55.20
2017-11-30T04:57:03.514Z,55.22
2017-11-30T04:59:29.768Z,55.15
2017-11-30T05:01:56.005Z,55.17
2017-11-30T05:04:22.210Z,55.12
2017-11-30T05:06:48.595Z,55.07
2017-11-30T05:09:15.037Z,55.36
2017-11-30T05:11:41.505Z,55.17
2017-11-30T05:14:07.853Z,55.04
2017-11-30T05:16:34.207Z,54.97
2017-11-30T05:19:00.683Z,54.87
2017-11-30T05:21:27.021Z,54.82
2017-11-30T05:23:53.232Z,54.79
2017-11-30T05:26:19.435Z,54.76
2017-11-30T05:28:45.663Z,54.93
2017-11-30T05:31:11.852Z,55.38
2017-11-30T05:33:38.109Z,55.24
2017-11-30T05:36:04.299Z,55.12
2017-11-30T05:38:30.502Z,55.03
2017-11-30T05:40:56.995Z,54.89
2017-11-30T05:43:23.199Z,54.90
2017-11-30T05:45:49.387Z,54.83
2017-11-30T05:48:15.879Z,54.81
2017-11-30T05:50:42.089Z,54.83
2017-11-30T05:53:08.328Z,54.95
2017-11-30T05:55:34.666Z,54.81
2017-11-30T05:58:00.862Z,54.70
2017-11-30T06:00:27.054Z,54.58
2017-11-30T06:02:53.353Z,54.49
2017-11-30T06:05:19.571Z,54.51
2017-11-30T06:07:45.782Z,54.49
2017-11-30T06:10:12.270Z,54.45
2017-11-30T06:12:38.459Z,54.43
2017-11-30T06:15:04.913Z,54.39
2017-11-30T06:17:31.192Z,54.34
2017-11-30T06:19:57.385Z,54.39
2017-11-30T06:22:23.830Z,54.38
2017-11-30T06:24:50.426Z,54.30
2017-11-30T06:27:16.599Z,54.24
2017-11-30T06:29:42.803Z,54.20
2017-11-30T06:32:09.144Z,54.14
2017-11-30T06:34:35.347Z,55.28
2017-11-30T06:37:01.529Z,55.10
2017-11-30T06:39:28.031Z,54.80
2017-11-30T06:41:54.269Z,54.73
2017-11-30T06:44:20.750Z,55.44
2017-11-30T06:46:47.045Z,55.54
2017-11-30T06:49:13.247Z,55.62
2017-11-30T06:51:39.487Z,55.49
2017-11-30T06:54:05.829Z,55.49
2017-11-30T06:56:32.050Z,55.44
2017-11-30T06:58:58.234Z,55.35
2017-11-30T07:01:24.487Z,55.21
2017-11-30T07:03:50.742Z,55.01
2017-11-30T07:06:17.177Z,55.05
2017-11-30T07:08:43.550Z,55.03
2017-11-30T07:11:10.091Z,55.39
2017-11-30T07:13:36.282Z,55.28
2017-11-30T07:16:02.536Z,55.22
2017-11-30T07:18:28.768Z,55.18
2017-11-30T07:20:54.973Z,55.21
2017-11-30T07:23:21.198Z,55.19
2017-11-30T07:25:47.407Z,55.45
2017-11-30T07:28:13.600Z,55.02
2017-11-30T07:30:39.892Z,54.99
2017-11-30T07:33:06.198Z,54.82
2017-11-30T07:35:32.437Z,54.67
2017-11-30T07:37:58.780Z,54.61
2017-11-30T07:40:25.032Z,54.61
2017-11-30T07:42:51.226Z,54.55
2017-11-30T07:45:17.580Z,54.45
2017-11-30T07:47:43.787Z,54.38
2017-11-30T07:50:09.992Z,54.41
2017-11-30T07:52:36.313Z,54.39
2017-11-30T07:55:02.483Z,54.30
2017-11-30T07:57:28.688Z,54.30
2017-11-30T07:59:54.943Z,54.20
2017-11-30T08:02:21.190Z,54.23
2017-11-30T08:04:47.626Z,54.22
2017-11-30T08:07:13.852Z,54.16
2017-11-30T08:09:40.097Z,54.14
2017-11-30T08:12:06.292Z,54.10
2017-11-30T08:14:32.485Z,53.99
2017-11-30T08:16:58.814Z,53.98
2017-11-30T08:19:25.012Z,53.96
2017-11-30T08:21:51.212Z,53.92
2017-11-30T08:24:17.458Z,53.90
2017-11-30T08:26:43.736Z,53.75
2017-11-30T08:29:09.927Z,53.74
2017-11-30T08:31:36.398Z,53.72
2017-11-30T08:34:02.846Z,53.65
2017-11-30T08:36:29.047Z,53.61
2017-11-30T08:38:55.304Z,53.71
2017-11-30T08:41:21.498Z,53.82
2017-11-30T08:43:47.709Z,53.76
2017-11-30T08:46:13.967Z,53.74
2017-11-30T08:48:40.161Z,53.65
2017-11-30T08:51:06.359Z,53.55
2017-11-30T08:53:32.675Z,53.54
2017-11-30T08:55:58.886Z,53.55
2017-11-30T08:58:25.133Z,53.52
2017-11-30T09:00:51.797Z,53.45
2017-11-30T09:03:18.016Z,53.37
2017-11-30T09:05:44.237Z,53.35
2017-11-30T09:08:10.546Z,53.39
2017-11-30T09:10:36.983Z,53.36
2017-11-30T09:13:03.172Z,53.37
2017-11-30T09:15:29.466Z,53.38
2017-11-30T09:17:55.648Z,53.37
2017-11-30T09:20:21.837Z,53.34
2017-11-30T09:22:48.075Z,53.28
2017-11-30T09:25:14.278Z,53.28
2017-11-30T09:27:40.463Z,53.30
2017-11-30T09:30:06.698Z,53.34
2017-11-30T09:32:32.916Z,53.26
2017-11-30T09:35:00.109Z,53.24
2017-11-30T09:37:26.361Z,53.23
2017-11-30T09:39:52.677Z,53.19
2017-11-30T09:42:18.857Z,53.12
2017-11-30T09:44:51.185Z,53.07
2017-11-30T09:47:17.388Z,53.06
2017-11-30T09:49:43.633Z,53.06
2017-11-30T09:52:09.894Z,53.08
2017-11-30T09:54:36.121Z,53.04
2017-11-30T09:57:02.367Z,52.98
2017-11-30T09:59:28.636Z,52.93
2017-11-30T10:01:55.212Z,52.90
2017-11-30T10:04:21.465Z,52.91
2017-11-30T10:06:47.838Z,52.93
2017-11-30T10:09:14.033Z,52.90
2017-11-30T10:11:40.231Z,52.83
2017-11-30T10:14:06.577Z,52.80
2017-11-30T10:16:32.758Z,52.79
2017-11-30T10:18:58.945Z,52.68
2017-11-30T10:21:25.278Z,52.69
2017-11-30T10:23:51.497Z,52.73
2017-11-30T10:26:17.687Z,52.70
2017-11-30T10:28:43.937Z,52.71
2017-11-30T10:31:10.107Z,52.66
2017-11-30T10:33:36.545Z,52.59
2017-11-30T10:36:03.048Z,52.57
2017-11-30T10:38:29.260Z,52.52
2017-11-30T10:40:55.459Z,52.45
2017-11-30T10:43:21.714Z,52.34
2017-11-30T10:45:47.901Z,52.08
2017-11-30T10:48:14.114Z,52.10
2017-11-30T10:50:40.354Z,52.17
2017-11-30T10:53:06.558Z,52.10
2017-11-30T10:55:32.760Z,52.16
2017-11-30T10:57:59.007Z,52.20
2017-11-30T11:00:25.196Z,52.27
2017-11-30T11:02:51.408Z,52.35
2017-11-30T11:05:17.826Z,52.76
2017-11-30T11:07:44.040Z,53.19
2017-11-30T11:10:10.385Z,53.15
2017-11-30T11:12:36.645Z,53.21
2017-11-30T11:15:02.846Z,53.17
2017-11-30T11:17:29.047Z,53.18
2017-11-30T11:19:55.673Z,53.13
2017-11-30T11:22:21.877Z,53.00
2017-11-30T11:24:48.070Z,52.98
2017-11-30T11:27:14.582Z,52.94
2017-11-30T11:29:40.807Z,53.00
2017-11-30T11:32:07.251Z,53.04
2017-11-30T11:34:33.497Z,53.11
2017-11-30T11:36:59.701Z,53.07
2017-11-30T11:39:25.938Z,53.00
2017-11-30T11:41:52.182Z,53.09
2017-11-30T11:44:18.384Z,52.90
2017-11-30T11:46:44.594Z,53.37
2017-11-30T11:49:10.922Z,53.29
2017-11-30T11:51:37.117Z,53.21
2017-11-30T11:54:03.303Z,53.08
2017-11-30T11:56:29.524Z,53.09
2017-11-30T11:58:55.719Z,53.21
2017-11-30T12:01:21.917Z,53.21
2017-11-30T12:03:48.318Z,53.34
2017-11-30T12:06:14.508Z,53.22
2017-11-30T12:08:40.697Z,53.10
2017-11-30T12:11:06.977Z,53.40
2017-11-30T12:13:33.184Z,53.46
2017-11-30T12:15:59.409Z,53.37
2017-11-30T12:18:25.974Z,53.42
2017-11-30T12:20:52.151Z,53.21
2017-11-30T12:23:18.346Z,53.09
2017-11-30T12:25:44.965Z,53.05
2017-11-30T12:28:11.391Z,53.00
2017-11-30T12:30:37.585Z,53.03
2017-11-30T12:33:03.868Z,53.02
2017-11-30T12:35:30.098Z,52.98
2017-11-30T12:37:56.318Z,52.91
2017-11-30T12:40:22.598Z,52.86
2017-11-30T12:42:48.781Z,52.85
2017-11-30T12:45:15.186Z,52.87
2017-11-30T12:47:41.519Z,52.91
2017-11-30T12:50:07.727Z,52.94
2017-11-30T12:52:33.984Z,52.88
2017-11-30T12:55:00.206Z,52.86
2017-11-30T12:57:26.396Z,52.81
2017-11-30T12:59:52.849Z,52.76
2017-11-30T13:02:19.179Z,52.75
2017-11-30T13:04:45.453Z,52.70
2017-11-30T13:07:11.675Z,52.71
2017-11-30T13:09:37.878Z,52.79
2017-11-30T13:12:04.106Z,52.73
2017-11-30T13:14:30.321Z,52.59
2017-11-30T13:16:56.779Z,52.57
2017-11-30T13:19:23.049Z,52.72
2017-11-30T13:21:49.249Z,53.10
2017-11-30T13:24:15.542Z,53.20
2017-11-30T13:26:41.831Z,53.21
2017-11-30T13:29:08.033Z,53.32
2017-11-30T13:31:34.224Z,53.35
2017-11-30T13:34:00.536Z,53.33
2017-11-30T13:36:26.719Z,53.32
2017-11-30T13:38:52.909Z,53.30
2017-11-30T13:41:19.142Z,53.34
2017-11-30T13:43:45.323Z,53.43
2017-11-30T13:46:11.527Z,53.42
2017-11-30T13:48:37.776Z,53.29
2017-11-30T13:51:03.997Z,53.09
2017-11-30T13:53:30.173Z,53.05
2017-11-30T13:55:56.414Z,52.99
2017-11-30T13:58:22.626Z,53.05
2017-11-30T14:00:48.825Z,53.04
2017-11-30T14:03:15.360Z,52.99
2017-11-30T14:05:41.567Z,52.91
2017-11-30T14:08:07.805Z,52.90
2017-11-30T14:10:35.980Z,52.88
2017-11-30T14:13:02.168Z,52.89
2017-11-30T14:15:28.393Z,52.91
2017-11-30T14:17:54.609Z,52.85
2017-11-30T14:20:20.797Z,52.87
2017-11-30T14:22:47.107Z,52.92
2017-11-30T14:25:13.300Z,52.90
2017-11-30T14:27:39.476Z,52.86
2017-11-30T14:30:05.703Z,52.85
2017-11-30T14:32:31.894Z,52.84
2017-11-30T14:34:58.095Z,52.86
2017-11-30T14:37:24.349Z,52.91
2017-11-30T14:39:50.540Z,52.86
2017-11-30T14:42:16.732Z,52.86
2017-11-30T14:44:42.977Z,52.83
2017-11-30T14:47:09.154Z,52.83
2017-11-30T14:49:35.347Z,52.80
2017-11-30T14:52:01.596Z,52.82
2017-11-30T14:54:27.784Z,52.80
2017-11-30T14:56:53.982Z,52.76
2017-11-30T14:59:20.305Z,52.74
2017-11-30T15:01:46.488Z,52.80
2017-11-30T15:04:12.899Z,52.80
2017-11-30T15:06:39.152Z,52.85
2017-11-30T15:09:05.382Z,52.86
2017-11-30T15:11:31.574Z,52.83
2017-11-30T15:13:57.839Z,52.85
2017-11-30T15:16:24.008Z,52.82
2017-11-30T15:18:50.194Z,52.75
2017-11-30T15:21:17.305Z,52.71
2017-11-30T15:23:43.494Z,52.73
2017-11-30T15:26:09.673Z,52.69
2017-11-30T15:28:35.903Z,52.73
2017-11-30T15:31:02.086Z,52.68
2017-11-30T15:33:28.276Z,52.70
2017-11-30T15:35:54.483Z,52.74
2017-11-30T15:38:20.732Z,52.69
2017-11-30T15:40:46.909Z,52.69
2017-11-30T15:43:13.099Z,52.71
2017-11-30T15:45:39.416Z,52.70
2017-11-30T15:48:05.601Z,52.70
2017-11-30T15:50:31.817Z,52.70
2017-11-30T15:52:58.068Z,52.65
2017-11-30T15:55:24.257Z,52.64
2017-11-30T15:57:50.469Z,52.69
2017-11-30T16:00:16.716Z,52.73
2017-11-30T16:02:43.146Z,52.71
2017-11-30T16:05:09.339Z,52.72
2017-11-30T16:07:35.596Z,52.71
2017-11-30T16:10:01.820Z,52.69
2017-11-30T16:12:28.011Z,52.66
2017-11-30T16:14:54.380Z,52.63
2017-11-30T16:17:20.553Z,52.58
2017-11-30T16:19:46.753Z,52.59
2017-11-30T16:22:13.378Z,52.62
2017-11-30T16:24:39.801Z,52.65
2017-11-30T16:27:05.971Z,52.69
2017-11-30T16:29:32.298Z,52.72
2017-11-30T16:31:58.502Z,52.67
2017-11-30T16:34:24.700Z,52.56
2017-11-30T16:36:51.082Z,52.52
2017-11-30T16:39:17.350Z,52.44
2017-11-30T16:41:43.949Z,52.42
2017-11-30T16:44:10.340Z,52.40
2017-11-30T16:46:36.610Z,52.38
2017-11-30T16:49:02.805Z,52.36
2017-11-30T16:51:29.134Z,52.36
2017-11-30T16:53:55.342Z,52.34
2017-11-30T16:56:22.457Z,52.31
2017-11-30T16:58:48.774Z,52.28
2017-11-30T17:01:15.291Z,52.25
2017-11-30T17:03:41.714Z,52.32
2017-11-30T17:06:07.945Z,52.32
2017-11-30T17:08:34.146Z,52.32
2017-11-30T17:11:00.377Z,52.37
2017-11-30T17:13:26.676Z,52.40
2017-11-30T17:15:52.866Z,52.40
2017-11-30T17:18:19.325Z,52.38
2017-11-30T17:20:45.583Z,52.37
2017-11-30T17:23:11.772Z,52.39
2017-11-30T17:25:37.961Z,52.41
2017-11-30T17:28:04.208Z,52.40
2017-11-30T17:30:30.622Z,52.36
2017-11-30T17:32:56.814Z,52.36
2017-11-30T17:35:23.048Z,52.37
2017-11-30T17:37:49.246Z,52.36
2017-11-30T17:40:15.462Z,52.28
2017-11-30T17:42:41.784Z,52.28
2017-11-30T17:45:08.216Z,52.34
2017-11-30T17:47:34.420Z,52.28
2017-11-30T17:50:00.696Z,52.27
2017-11-30T17:52:26.902Z,52.26
2017-11-30T17:54:53.099Z,52.28
2017-11-30T17:57:19.338Z,52.31
2017-11-30T17:59:46.816Z,52.35
2017-11-30T18:02:13.029Z,52.35
2017-11-30T18:04:39.360Z,52.35
2017-11-30T18:07:05.548Z,52.44
2017-11-30T18:09:32.041Z,52.61
2017-11-30T18:11:58.305Z,52.79
2017-11-30T18:14:24.481Z,52.89
2017-11-30T18:16:50.923Z,52.94
2017-11-30T18:19:17.184Z,52.98
2017-11-30T18:21:43.383Z,52.98
2017-11-30T18:24:09.599Z,53.14
2017-11-30T18:26:35.945Z,53.12
2017-11-30T18:29:02.144Z,53.26
2017-11-30T18:31:28.389Z,53.36
2017-11-30T18:33:54.666Z,53.46
2017-11-30T18:36:21.033Z,53.48
2017-11-30T18:38:47.403Z,53.54
2017-11-30T18:41:15.981Z,53.59
2017-11-30T18:43:43.226Z,53.29
2017-11-30T18:46:11.729Z,53.42
2017-11-30T18:48:41.079Z,53.78
2017-11-30T18:51:07.502Z,53.82
2017-11-30T18:53:36.061Z,53.74
2017-11-30T18:56:02.397Z,53.73
2017-11-30T18:58:28.938Z,53.63
2017-11-30T19:00:56.839Z,53.66
2017-11-30T19:03:23.205Z,53.70
2017-11-30T19:05:49.638Z,53.36
2017-11-30T19:08:15.999Z,53.42
2017-11-30T19:10:42.397Z,53.67
2017-11-30T19:13:08.591Z,53.75
2017-11-30T19:15:34.779Z,53.76
2017-11-30T19:18:01.035Z,53.82
2017-11-30T19:20:27.202Z,53.59
2017-11-30T19:22:53.394Z,53.49
2017-11-30T19:25:19.621Z,53.27
2017-11-30T19:27:45.814Z,53.56
2017-11-30T19:30:11.984Z,54.63
2017-11-30T19:32:38.532Z,54.99
2017-11-30T19:35:04.712Z,54.95
2017-11-30T19:37:30.914Z,54.98
2017-11-30T19:39:57.159Z,54.66
2017-11-30T19:42:23.358Z,54.37
2017-11-30T19:44:49.537Z,54.26
2017-11-30T19:47:15.859Z,54.19
2017-11-30T19:49:42.044Z,54.18
2017-11-30T19:52:08.227Z,54.20
2017-11-30T19:54:35.493Z,54.14
2017-11-30T19:57:01.676Z,54.10
2017-11-30T19:59:27.846Z,54.26
2017-11-30T20:01:54.425Z,54.02
2017-11-30T20:04:20.618Z,54.34
2017-11-30T20:06:46.885Z,54.50
2017-11-30T20:09:16.078Z,54.34
2017-11-30T20:11:42.440Z,54.32
2017-11-30T20:14:08.634Z,54.07
2017-11-30T20:16:34.893Z,54.32
2017-11-30T20:19:01.322Z,54.26
2017-11-30T20:21:27.543Z,54.18
2017-11-30T20:23:53.797Z,54.13
2017-11-30T20:26:19.988Z,54.36
2017-11-30T20:28:46.170Z,54.36
2017-11-30T20:31:12.497Z,54.15
2017-11-30T20:33:38.708Z,54.00
2017-11-30T20:36:04.909Z,53.90
2017-11-30T20:38:31.149Z,53.83
2017-11-30T20:40:58.610Z,53.83
2017-11-30T20:43:24.794Z,53.81
2017-11-30T20:45:51.044Z,53.90
2017-11-30T20:48:17.258Z,53.84
2017-11-30T20:50:43.465Z,53.89
2017-11-30T20:53:09.675Z,53.85
2017-11-30T20:55:35.852Z,53.86
2017-11-30T20:58:02.089Z,54.00
2017-11-30T21:00:28.291Z,54.13
2017-11-30T21:02:54.490Z,54.07
2017-11-30T21:05:20.697Z,54.03
2017-11-30T21:07:46.917Z,54.03
2017-11-30T21:10:13.386Z,54.12
2017-11-30T21:12:39.770Z,54.10
2017-11-30T21:15:05.993Z,53.99
2017-11-30T21:17:32.195Z,53.99
2017-11-30T21:19:58.493Z,54.08
2017-11-30T21:22:24.723Z,54.24
2017-11-30T21:24:50.904Z,54.30
2017-11-30T21:27:17.124Z,54.26
2017-11-30T21:29:43.362Z,54.33
2017-11-30T21:32:13.772Z,54.34
2017-11-30T21:34:44.384Z,54.33
2017-11-30T21:37:12.839Z,54.45
2017-11-30T21:39:42.969Z,54.44
2017-11-30T21:42:09.164Z,54.47
2017-11-30T21:44:35.473Z,54.35
2017-11-30T21:47:01.629Z,54.34
2017-11-30T21:49:27.820Z,54.58
2017-11-30T21:51:54.063Z,54.21
2017-11-30T21:54:20.256Z,54.23
2017-11-30T21:56:46.450Z,54.21
2017-11-30T21:59:12.700Z,54.31
2017-11-30T22:01:38.884Z,54.48
2017-11-30T22:04:05.060Z,54.39
2017-11-30T22:06:31.549Z,54.49
2017-11-30T22:08:57.737Z,54.36
2017-11-30T22:11:23.908Z,54.24
2017-11-30T22:13:50.330Z,54.27
2017-11-30T22:16:16.757Z,54.38
2017-11-30T22:18:42.992Z,54.35
2017-11-30T22:21:09.493Z,54.40
2017-11-30T22:23:35.680Z,54.46
2017-11-30T22:26:01.854Z,54.79
2017-11-30T22:28:28.099Z,55.00
2017-11-30T22:30:54.267Z,54.81
2017-11-30T22:33:20.467Z,54.68
2017-11-30T22:35:46.715Z,54.71
2017-11-30T22:38:13.141Z,54.76
2017-11-30T22:40:39.351Z,54.55
2017-11-30T22:43:05.729Z,55.11
2017-11-30T22:45:32.033Z,55.28
2017-11-30T22:47:58.218Z,55.19
2017-11-30T22:50:24.705Z,55.20
2017-11-30T22:52:50.983Z,55.33
2017-11-30T22:55:18.194Z,55.42
2017-11-30T22:57:44.454Z,55.44
2017-11-30T23:00:10.954Z,55.41
2017-11-30T23:02:37.146Z,55.45
2017-11-30T23:05:03.485Z,55.57
2017-11-30T23:07:29.665Z,55.62
2017-11-30T23:09:56.092Z,55.67
2017-11-30T23:12:22.427Z,55.55
2017-11-30T23:14:48.620Z,55.52
2017-11-30T23:17:14.846Z,55.54
2017-11-30T23:19:41.091Z,55.53
2017-11-30T23:22:07.272Z,55.50
2017-11-30T23:24:33.702Z,55.51
2017-11-30T23:27:00.016Z,55.47
2017-11-30T23:29:26.201Z,55.47
2017-11-30T23:31:52.394Z,55.46
2017-11-30T23:34:18.693Z,55.35
2017-11-30T23:36:45.161Z,55.33
2017-11-30T23:39:11.364Z,55.34
2017-11-30T23:41:37.970Z,55.34
2017-11-30T23:44:05.315Z,55.30
2017-11-30T23:46:31.504Z,55.59
2017-11-30T23:48:57.839Z,55.49
2017-11-30T23:51:24.024Z,55.32
2017-11-30T23:53:50.824Z,55.22
2017-11-30T23:56:17.882Z,55.18
2017-11-30T23:58:44.072Z,55.20
